Anaheim Hills, California
Current Conditions -  °F | °C
As of 10:56 AM on Monday 20 Oct 2014 (Local Time) from KAJO Reporting Station
Few Clouds Few Clouds  
Wind Chill: 71°   Ceiling: Unl
Heat Index: 71°   Visibility: 9mi
Dew Point: 60°   Wind: 0mph
Humidity: 68%   Direction: NA
Pressure: 29.96"   Gusts: NA
Location:  33.8431°N, 117.777°W
Report Text: KAJO 201756Z AUTO 00000KT 9SM FEW017 22/16 A2996 RMK AO2 50010 T02160155 10227 20105 SLP141 $
Loading
Personal Weather Stations






























Interactive Weather Map New forecast layout! Learn more

10-Day Weather Forecast

Advertisements
Track Severe Weather on mobile